.
WxDataArchive / Data Records for 2008-10-09
2008-10-08 October 2008 2008-10-10

Data Records for Thursday, 09 October 2008

Time	Temp	Chill	HIndex	Humid	Dewpt	 Wind 	HiWind	WindDir	Rain 	Barom 
-----	----	-----	------	-----	-----	------	------	-------	-----	----- 
00:00	49.6	49.6	49.6	94	47.9	0	0	---	0.00	29.904 
00:05	49.5	49.5	49.5	94	47.8	0	0	---	0.00	29.904 
00:10	49.2	49.2	49.2	94	47.5	0	0	---	0.00	29.907 
00:15	49.1	49.1	49.1	94	47.4	0	0	---	0.00	29.908 
00:20	49.1	49.1	49.1	94	47.4	0	0	---	0.00	29.908 
00:25	48.9	48.9	48.9	94	47.2	0	0	---	0.00	29.907 
00:30	48.9	48.9	48.9	94	47.2	0	0	---	0.00	29.906 
00:35	48.9	48.9	48.9	94	47.2	0	0	---	0.00	29.906 
00:40	48.8	48.8	48.8	94	47.1	0	0	---	0.00	29.905 
00:45	48.8	48.8	48.8	95	47.4	0	0	---	0.00	29.906 
00:50	48.8	48.8	48.8	95	47.4	0	0	---	0.00	29.906 
00:55	48.6	48.6	48.6	95	47.2	0	0	---	0.00	29.911 
01:00	48.6	48.6	48.6	95	47.2	0	0	---	0.00	29.910 
01:05	48.6	48.6	48.6	95	47.2	0	0	---	0.00	29.910 
01:10	48.6	48.6	48.6	95	47.2	0	0	---	0.00	29.913 
01:15	48.6	48.6	48.6	95	47.2	0	0	---	0.00	29.914 
01:20	48.6	48.6	48.6	95	47.2	0	0	---	0.00	29.914 
01:25	48.6	48.6	48.6	95	47.2	0	0	---	0.00	29.915 
01:30	48.5	48.5	48.5	95	47.1	0	0	---	0.00	29.915 
01:35	48.5	48.5	48.5	95	47.1	0	0	---	0.00	29.916 
01:40	48.3	48.3	48.3	95	46.9	0	0	---	0.00	29.920 
01:45	48.3	48.3	48.3	96	47.2	0	2	248	0.00	29.922 
01:50	48.6	48.6	48.6	96	47.5	0	1	248	0.00	29.923 
01:55	48.8	48.8	48.8	96	47.7	0	1	248	0.00	29.923 
02:00	48.9	48.9	48.9	96	47.8	0	0	---	0.00	29.925 
02:05	48.9	48.9	48.9	96	47.8	0	0	---	0.00	29.926 
02:10	48.8	48.8	48.8	96	47.7	0	0	---	0.00	29.927 
02:15	48.9	48.9	48.9	96	47.8	0	1	248	0.00	29.927 
02:20	48.9	48.9	48.9	96	47.8	0	0	---	0.00	29.928 
02:25	48.9	48.9	48.9	96	47.8	0	1	248	0.00	29.926 
02:30	49.1	49.1	49.1	96	48.0	0	1	248	0.00	29.920 
02:35	49.1	49.1	49.1	96	48.0	0	1	248	0.00	29.917 
02:40	49.1	49.1	49.1	96	48.0	0	0	---	0.00	29.916 
02:45	48.9	48.9	48.9	96	47.8	0	0	---	0.00	29.917 
02:50	48.8	48.8	48.8	96	47.7	0	0	---	0.00	29.918 
02:55	48.6	48.6	48.6	96	47.5	0	0	---	0.00	29.918 
03:00	48.5	48.5	48.5	96	47.4	0	0	---	0.00	29.920 
03:05	48.5	48.5	48.5	96	47.4	0	0	---	0.00	29.922 
03:10	48.3	48.3	48.3	96	47.2	0	0	---	0.00	29.923 
03:15	48.3	48.3	48.3	96	47.2	0	1	248	0.00	29.922 
03:20	48.2	48.2	48.2	96	47.1	0	0	---	0.00	29.921 
03:25	48.0	48.0	48.0	96	46.9	0	0	---	0.00	29.921 
03:30	48.0	48.0	48.0	96	46.9	0	0	---	0.00	29.922 
03:35	48.0	48.0	48.0	96	46.9	0	0	---	0.00	29.925 
03:40	47.9	47.9	47.9	96	46.8	0	0	---	0.00	29.928 
03:45	47.7	47.7	47.7	96	46.6	0	0	---	0.00	29.930 
03:50	47.6	47.6	47.6	96	46.5	0	0	---	0.00	29.931 
03:55	47.6	47.6	47.6	96	46.5	0	0	---	0.00	29.932 
04:00	47.7	47.7	47.7	96	46.6	0	1	248	0.00	29.932 
04:05	47.7	47.7	47.7	96	46.6	0	0	---	0.00	29.936 
04:10	47.7	47.7	47.7	96	46.6	0	0	---	0.00	29.935 
04:15	47.7	47.7	47.7	96	46.6	0	0	---	0.00	29.934 
04:20	47.7	47.7	47.7	96	46.6	0	1	248	0.00	29.935 
04:25	47.6	47.6	47.6	96	46.5	0	0	---	0.00	29.936 
04:30	47.7	47.7	47.7	96	46.6	0	1	248	0.00	29.937 
04:35	47.7	47.7	47.7	96	46.6	0	0	---	0.00	29.938 
04:40	47.7	47.7	47.7	96	46.6	0	1	248	0.00	29.938 
04:45	47.7	47.7	47.7	96	46.6	0	0	---	0.00	29.938 
04:50	47.7	47.7	47.7	96	46.6	0	0	---	0.00	29.938 
04:55	47.6	47.6	47.6	96	46.5	0	0	---	0.00	29.937 
05:00	47.6	47.6	47.6	96	46.5	0	0	---	0.00	29.937 
05:05	47.4	47.4	47.4	96	46.3	0	0	---	0.00	29.938 
05:10	47.4	47.4	47.4	96	46.3	0	0	---	0.00	29.939 
05:15	47.4	47.4	47.4	96	46.3	0	0	---	0.00	29.940 
05:20	47.6	47.6	47.6	96	46.5	0	1	248	0.00	29.941 
05:25	47.7	47.7	47.7	96	46.6	0	1	248	0.00	29.944 
05:30	47.7	47.7	47.7	96	46.6	0	1	248	0.00	29.943 
05:35	47.9	47.9	47.9	96	46.8	0	1	248	0.00	29.944 
05:40	47.7	47.7	47.7	96	46.6	0	1	248	0.00	29.945 
05:45	47.7	47.7	47.7	96	46.6	0	1	248	0.00	29.947 
05:50	47.7	47.7	47.7	96	46.6	0	1	248	0.00	29.950 
05:55	47.7	47.7	47.7	96	46.6	0	1	248	0.00	29.951 
06:00	47.7	47.7	47.7	96	46.6	0	1	248	0.00	29.951 
06:05	47.7	47.7	47.7	96	46.6	0	1	248	0.00	29.951 
06:10	47.7	47.7	47.7	96	46.6	0	1	248	0.00	29.949 
06:15	47.7	47.7	47.7	96	46.6	0	1	248	0.00	29.950 
06:20	47.7	47.7	47.7	96	46.6	0	1	248	0.00	29.950 
06:25	47.7	47.7	47.7	96	46.6	0	1	248	0.00	29.949 
06:30	47.6	47.6	47.6	96	46.5	0	1	248	0.00	29.952 
06:35	47.6	47.6	47.6	96	46.5	0	1	248	0.00	29.953 
06:40	47.6	47.6	47.6	96	46.5	0	1	248	0.00	29.954 
06:45	47.6	47.6	47.6	96	46.5	0	1	248	0.00	29.955 
06:50	47.4	47.4	47.4	96	46.3	0	0	---	0.00	29.957 
06:55	47.4	47.4	47.4	96	46.3	0	1	248	0.00	29.958 
07:00	47.4	47.4	47.4	96	46.3	0	0	---	0.00	29.965 
07:05	47.4	47.4	47.4	96	46.3	0	1	248	0.00	29.967 
07:10	47.4	47.4	47.4	96	46.3	0	1	248	0.00	29.969 
07:15	47.6	47.6	47.6	96	46.5	0	1	248	0.00	29.970 
07:20	47.7	47.7	47.7	96	46.6	0	1	248	0.00	29.970 
07:25	47.9	47.9	47.9	96	46.8	0	1	248	0.00	29.971 
07:30	48.0	48.0	48.0	96	46.9	0	1	248	0.00	29.975 
07:35	48.2	48.2	48.2	96	47.1	0	1	248	0.00	29.974 
07:40	48.5	48.5	48.5	96	47.4	0	1	248	0.00	29.980 
07:45	48.6	48.6	48.6	96	47.5	0	1	248	0.00	29.979 
07:50	48.8	48.8	48.8	96	47.7	0	1	248	0.00	29.981 
07:55	48.9	48.9	48.9	96	47.8	0	1	248	0.00	29.982 
08:00	49.1	49.1	49.1	96	48.0	0	1	248	0.00	29.982 
08:05	49.4	49.4	49.4	96	48.3	0	1	248	0.00	29.984 
08:10	49.6	49.6	49.6	96	48.5	0	1	248	0.00	29.981 
08:15	49.9	49.9	49.9	96	48.8	0	1	248	0.00	29.982 
08:20	50.2	50.2	50.2	96	49.1	0	1	248	0.00	29.982 
08:25	50.7	50.7	50.7	96	49.6	0	1	248	0.00	29.982 
08:30	51.0	51.0	51.0	95	49.6	0	2	248	0.00	29.984 
08:35	51.4	51.4	51.4	94	49.7	0	2	248	0.00	29.985 
08:40	51.9	51.9	51.9	92	49.6	0	2	248	0.00	29.986 
08:45	52.3	52.3	52.3	91	49.8	0	2	248	0.00	29.985 
08:50	52.8	52.8	52.8	88	49.3	1	3	248	0.00	29.989 
08:55	53.5	53.5	53.5	87	49.7	0	1	248	0.00	29.993 
09:00	54.1	54.1	54.1	84	49.4	1	3	248	0.00	29.993 
09:05	54.7	54.7	54.7	81	49.0	1	3	248	0.00	29.996 
09:10	55.3	55.3	55.3	79	48.9	1	2	248	0.00	29.996 
09:15	56.0	56.0	56.0	78	49.2	1	3	248	0.00	29.997 
09:20	56.6	56.6	56.6	77	49.5	1	2	248	0.00	29.997 
09:25	57.2	57.2	57.2	73	48.6	1	3	248	0.00	30.001 
09:30	57.8	57.8	57.8	73	49.2	1	3	338	0.00	30.002 
09:35	58.3	58.3	58.3	72	49.3	1	4	292	0.00	30.001 
09:40	58.6	58.6	58.6	71	49.2	1	4	315	0.00	29.999 
09:45	59.2	59.2	59.2	70	49.4	1	3	315	0.00	29.997 
09:50	59.6	59.6	59.6	70	49.8	1	2	248	0.00	29.998 
09:55	59.9	59.9	59.9	68	49.3	2	3	248	0.00	29.999 
10:00	60.4	60.4	60.4	69	50.2	1	3	270	0.00	30.001 
10:05	60.9	60.9	60.9	69	50.7	1	2	315	0.00	30.000 
10:10	61.2	61.2	61.2	68	50.5	1	2	315	0.00	30.002 
10:15	61.6	61.6	61.6	67	50.5	1	2	315	0.00	30.002 
10:20	62.0	62.0	62.0	65	50.1	1	3	315	0.00	30.001 
10:25	62.0	62.0	62.0	66	50.5	1	2	270	0.00	30.004 
10:30	62.3	62.3	62.3	69	52.0	1	3	270	0.00	30.006 
10:35	62.4	62.4	62.4	65	50.5	1	2	315	0.00	30.007 
10:40	63.1	63.1	63.1	66	51.6	1	3	315	0.00	30.008 
10:45	63.4	63.4	63.4	65	51.4	1	4	315	0.00	30.008 
10:50	63.5	63.5	63.5	65	51.5	1	3	270	0.00	30.009 
10:55	63.9	63.9	63.9	64	51.5	1	3	270	0.00	30.007 
11:00	64.3	64.3	64.3	61	50.6	0	2	292	0.00	30.007 
11:05	64.8	64.8	64.8	62	51.5	0	2	315	0.00	30.007 
11:10	65.3	65.3	65.3	61	51.5	0	2	315	0.00	30.008 
11:15	65.5	65.5	65.5	59	50.8	1	3	315	0.00	30.006 
11:20	65.8	65.8	65.8	59	51.1	1	2	315	0.00	30.006 
11:25	66.0	66.0	66.0	58	50.8	0	2	315	0.00	30.005 
11:30	66.3	66.3	66.3	53	48.6	1	3	315	0.00	30.006 
11:35	66.6	66.6	66.6	53	48.9	1	2	292	0.00	30.006 
11:40	66.8	66.8	66.8	52	48.6	0	2	292	0.00	30.006 
11:45	67.3	67.3	67.3	51	48.5	1	2	292	0.00	30.007 
11:50	67.3	67.3	67.3	49	47.5	1	2	292	0.00	30.006 
11:55	67.4	67.4	67.4	49	47.6	1	2	292	0.00	30.007 
12:00	67.6	67.6	67.6	49	47.8	1	3	292	0.00	30.005 
12:05	67.8	67.8	67.8	48	47.4	1	3	292	0.00	30.006 
12:10	68.1	68.1	68.1	51	49.3	0	1	292	0.00	30.005 
12:15	68.3	68.3	68.3	46	46.7	1	2	292	0.00	30.007 
12:20	68.3	68.3	68.3	48	47.8	0	2	315	0.00	30.006 
12:25	68.6	68.6	68.6	49	48.7	1	3	315	0.00	30.004 
12:30	68.8	68.8	68.8	49	48.8	0	1	315	0.00	30.001 
12:35	68.8	68.8	68.8	45	46.6	0	2	315	0.00	29.999 
12:40	68.9	68.9	68.9	45	46.7	1	4	292	0.00	29.992 
12:45	69.1	69.1	69.1	44	46.3	1	3	270	0.00	29.992 
12:50	69.3	69.3	69.3	43	45.8	1	3	292	0.00	29.992 
12:55	69.3	69.3	69.3	44	46.4	1	3	315	0.00	29.992 
13:00	69.4	69.4	69.4	43	45.9	1	3	248	0.00	29.992 
13:05	69.6	69.6	69.6	44	46.7	1	3	248	0.00	29.991 
13:10	69.9	69.9	69.9	44	47.0	1	3	315	0.00	29.992 
13:15	69.9	69.9	69.9	40	44.5	1	3	292	0.00	29.991 
13:20	69.9	69.9	69.9	43	46.4	2	3	315	0.00	29.992 
13:25	70.1	70.1	70.1	42	45.9	1	4	270	0.00	29.990 
13:30	70.1	70.1	70.1	41	45.3	1	3	292	0.00	29.990 
13:35	70.3	70.3	70.3	40	44.8	1	5	270	0.00	29.989 
13:40	70.4	70.4	70.4	39	44.2	2	3	248	0.00	29.989 
13:45	70.4	70.4	70.4	40	44.9	0	1	270	0.00	29.989 
13:50	70.4	70.4	70.4	39	44.2	1	3	270	0.00	29.989 
13:55	70.6	70.6	70.6	38	43.7	1	3	270	0.00	29.987 
14:00	70.6	70.6	70.6	38	43.7	2	3	270	0.00	29.987 
14:05	70.8	70.8	70.8	38	43.9	1	3	292	0.00	29.988 
14:10	70.8	70.8	70.8	36	42.5	1	2	270	0.00	29.987 
14:15	70.9	70.9	70.9	37	43.3	1	4	248	0.00	29.987 
14:20	70.8	70.8	70.8	35	41.8	1	4	315	0.00	29.988 
14:25	70.6	70.6	70.6	37	43.1	1	4	270	0.00	29.988 
14:30	70.8	70.8	70.8	37	43.2	1	3	270	0.00	29.988 
14:35	70.8	70.8	70.8	36	42.5	1	4	270	0.00	29.989 
14:40	70.8	70.8	70.8	34	41.0	2	5	315	0.00	29.990 
14:45	70.4	70.4	70.4	35	41.4	1	4	315	0.00	29.993 
14:50	70.4	70.4	70.4	36	42.2	1	4	315	0.00	29.992 
14:55	70.4	70.4	70.4	36	42.2	1	3	315	0.00	29.991 
15:00	70.6	70.6	70.6	38	43.7	1	3	315	0.00	29.989 
15:05	70.6	70.6	70.6	37	43.1	1	4	315	0.00	29.990 
15:10	70.4	70.4	70.4	35	41.4	1	2	292	0.00	29.991 
15:15	70.3	70.3	70.3	38	43.5	1	2	315	0.00	29.990 
15:20	70.3	70.3	70.3	36	42.1	0	2	315	0.00	29.991 
15:25	70.3	70.3	70.3	36	42.1	1	3	315	0.00	29.993 
15:30	70.3	70.3	70.3	37	42.8	1	3	292	0.00	29.991 
15:35	70.1	70.1	70.1	35	41.2	0	1	292	0.00	29.991 
15:40	70.1	70.1	70.1	34	40.4	1	3	292	0.00	29.994 
15:45	69.9	69.9	69.9	33	39.5	1	4	248	0.00	29.995 
15:50	69.9	69.9	69.9	33	39.5	1	3	315	0.00	29.998 
15:55	69.9	69.9	69.9	32	38.7	1	3	315	0.00	30.000 
16:00	69.8	69.8	69.8	34	40.2	1	2	292	0.00	30.000 
16:05	69.6	69.6	69.6	30	36.8	1	4	315	0.00	30.002 
16:10	69.4	69.4	69.4	30	36.6	1	2	315	0.00	30.004 
16:15	69.3	69.3	69.3	30	36.5	0	2	315	0.00	30.004 
16:20	69.3	69.3	69.3	29	35.7	0	1	315	0.00	30.002 
16:25	69.3	69.3	69.3	32	38.2	0	1	315	0.00	30.000 
16:30	69.1	69.1	69.1	29	35.5	1	2	315	0.00	29.998 
16:35	68.9	68.9	68.9	29	35.3	0	2	315	0.00	30.000 
16:40	68.8	68.8	68.8	27	33.5	1	3	315	0.00	30.003 
16:45	68.6	68.6	68.6	27	33.3	1	3	338	0.00	30.005 
16:50	68.4	68.4	68.4	28	34.0	0	1	270	0.00	30.007 
16:55	68.4	68.4	68.4	29	34.9	0	1	270	0.00	30.008 
17:00	68.1	68.1	68.1	30	35.5	0	1	270	0.00	30.011 
17:05	67.8	67.8	67.8	31	36.1	0	1	270	0.00	30.013 
17:10	67.4	67.4	67.4	31	35.7	0	1	270	0.00	30.016 
17:15	67.3	67.3	67.3	31	35.6	0	1	270	0.00	30.023 
17:20	66.9	66.9	66.9	31	35.3	0	3	270	0.00	30.024 
17:25	66.8	66.8	66.8	31	35.2	0	1	270	0.00	30.024 
17:30	66.4	66.4	66.4	33	36.4	0	2	270	0.00	30.024 
17:35	66.0	66.0	66.0	34	36.8	0	0	---	0.00	30.025 
17:40	65.5	65.5	65.5	35	37.1	0	0	---	0.00	30.025 
17:45	65.0	65.0	65.0	36	37.4	0	0	---	0.00	30.028 
17:50	64.5	64.5	64.5	38	38.3	0	0	---	0.00	30.029 
17:55	63.9	63.9	63.9	38	37.8	0	0	---	0.00	30.030 
18:00	63.2	63.2	63.2	38	37.2	0	0	---	0.00	30.037 
18:05	62.7	62.7	62.7	39	37.4	0	0	---	0.00	30.039 
18:10	62.3	62.3	62.3	40	37.7	0	0	---	0.00	30.042 
18:15	61.6	61.6	61.6	41	37.7	0	0	---	0.00	30.043 
18:20	60.9	60.9	60.9	43	38.3	0	0	---	0.00	30.045 
18:25	60.2	60.2	60.2	43	37.6	0	0	---	0.00	30.047 
18:30	59.5	59.5	59.5	45	38.1	0	0	---	0.00	30.047 
18:35	58.7	58.7	58.7	47	38.5	0	0	---	0.00	30.048 
18:40	58.0	58.0	58.0	51	40.0	0	0	---	0.00	30.051 
18:45	57.2	57.2	57.2	53	40.2	0	0	---	0.00	30.050 
18:50	56.6	56.6	56.6	55	40.6	0	0	---	0.00	30.051 
18:55	56.0	56.0	56.0	56	40.5	0	0	---	0.00	30.052 
19:00	55.6	55.6	55.6	57	40.6	0	0	---	0.00	30.051 
19:05	55.1	55.1	55.1	57	40.1	0	0	---	0.00	30.051 
19:10	54.7	54.7	54.7	58	40.2	0	0	---	0.00	30.052 
19:15	54.4	54.4	54.4	60	40.8	0	0	---	0.00	30.057 
19:20	53.9	53.9	53.9	61	40.8	0	0	---	0.00	30.059 
19:25	53.6	53.6	53.6	62	40.9	0	0	---	0.00	30.060 
19:30	53.2	53.2	53.2	63	40.9	0	0	---	0.00	30.062 
19:35	52.9	52.9	52.9	64	41.1	0	0	---	0.00	30.062 
19:40	52.5	52.5	52.5	65	41.1	0	0	---	0.00	30.063 
19:45	52.2	52.2	52.2	66	41.2	0	0	---	0.00	30.066 
19:50	51.9	51.9	51.9	68	41.7	0	0	---	0.00	30.066 
19:55	51.6	51.6	51.6	67	41.0	0	0	---	0.00	30.068 
20:00	51.1	51.1	51.1	67	40.5	0	0	---	0.00	30.068 
20:05	50.8	50.8	50.8	68	40.6	0	0	---	0.00	30.066 
20:10	50.5	50.5	50.5	68	40.3	0	0	---	0.00	30.065 
20:15	50.2	50.2	50.2	67	39.7	0	0	---	0.00	30.065 
20:20	49.9	49.9	49.9	69	40.1	0	0	---	0.00	30.065 
20:25	49.6	49.6	49.6	70	40.2	0	0	---	0.00	30.066 
20:30	49.4	49.4	49.4	70	40.0	0	0	---	0.00	30.065 
20:35	49.1	49.1	49.1	71	40.1	0	0	---	0.00	30.068 
20:40	48.8	48.8	48.8	73	40.5	0	0	---	0.00	30.068 
20:45	48.6	48.6	48.6	74	40.7	0	0	---	0.00	30.070 
20:50	48.3	48.3	48.3	74	40.4	0	0	---	0.00	30.069 
20:55	48.0	48.0	48.0	75	40.5	0	0	---	0.00	30.072 
21:00	47.9	47.9	47.9	75	40.4	0	0	---	0.00	30.072 
21:05	47.6	47.6	47.6	75	40.1	0	0	---	0.00	30.068 
21:10	47.3	47.3	47.3	76	40.1	0	0	---	0.00	30.072 
21:15	47.1	47.1	47.1	77	40.3	0	0	---	0.00	30.076 
21:20	46.8	46.8	46.8	77	40.0	0	0	---	0.00	30.077 
21:25	46.7	46.7	46.7	78	40.2	0	0	---	0.00	30.079 
21:30	46.5	46.5	46.5	79	40.3	0	0	---	0.00	30.080 
21:35	46.2	46.2	46.2	79	40.1	0	0	---	0.00	30.081 
21:40	46.1	46.1	46.1	79	40.0	0	0	---	0.00	30.081 
21:45	45.8	45.8	45.8	80	40.0	0	0	---	0.00	30.082 
21:50	45.8	45.8	45.8	81	40.3	0	0	---	0.00	30.085 
21:55	45.7	45.7	45.7	81	40.2	0	0	---	0.00	30.082 
22:00	45.5	45.5	45.5	81	40.0	0	0	---	0.00	30.087 
22:05	45.4	45.4	45.4	82	40.2	0	0	---	0.00	30.087 
22:10	45.2	45.2	45.2	83	40.3	0	0	---	0.00	30.092 
22:15	44.9	44.9	44.9	83	40.1	0	0	---	0.00	30.091 
22:20	44.8	44.8	44.8	83	40.0	0	0	---	0.00	30.092 
22:25	44.6	44.6	44.6	83	39.8	0	0	---	0.00	30.092 
22:30	44.5	44.5	44.5	83	39.7	0	0	---	0.00	30.094 
22:35	44.3	44.3	44.3	84	39.8	0	0	---	0.00	30.094 
22:40	44.3	44.3	44.3	84	39.8	0	0	---	0.00	30.094 
22:45	44.3	44.3	44.3	84	39.8	0	0	---	0.00	30.094 
22:50	44.2	44.2	44.2	84	39.7	0	0	---	0.00	30.094 
22:55	44.2	44.2	44.2	84	39.7	0	0	---	0.00	30.093 
23:00	44.2	44.2	44.2	83	39.4	0	0	---	0.00	30.095 
23:05	44.2	44.2	44.2	83	39.4	0	0	---	0.00	30.093 
23:10	44.2	44.2	44.2	82	39.1	0	0	---	0.00	30.092 
23:15	44.1	44.1	44.1	82	39.0	0	0	---	0.00	30.092 
23:20	44.1	44.1	44.1	81	38.6	0	0	---	0.00	30.091 
23:25	43.9	43.9	43.9	81	38.5	0	0	---	0.00	30.090 
23:30	43.9	43.9	43.9	81	38.5	0	0	---	0.00	30.090 
23:35	43.8	43.8	43.8	81	38.4	0	0	---	0.00	30.091 
23:40	43.5	43.5	43.5	81	38.1	0	0	---	0.00	30.094 
23:45	43.3	43.3	43.3	82	38.2	0	0	---	0.00	30.092 
23:50	43.2	43.2	43.2	83	38.4	0	0	---	0.00	30.093 
23:55	43.1	43.1	43.1	83	38.3	0	0	---	0.00	30.094 

CoCoRaHS
IN-AL-39
A2 Web Hosting
Creative Commons License
GoDaddy
Look for:

loaded 2017-10-18 07:13:53 • last modified 2010-11-18 10:43:29
Privacy PolicyDisclaimer
• wx.awcolley.com is powered by PmWiki v.2002016 •
• all content (unless otherwise noted) © 2017 A W Colley